Time,TemperatureF,DewpointF,PressureIn,WindDirection,WindDirectionDegrees,WindSpeedMPH,WindSpeedGustMPH,Humidity,HourlyPrecipIn,Conditions,Clouds,dailyrainin,SoftwareType,DateUTC
2013-01-02 00:03:00,27.0,11.0,-100.00,SE,135,9.0,20.0,51,0.00,,,0.00,,2013-01-02 05:03:00,
2013-01-02 00:12:00,27.0,11.0,-100.00,SE,135,9.0,20.0,51,0.00,,,0.00,,2013-01-02 05:12:00,
2013-01-02 00:22:00,27.0,11.0,-100.00,ESE,120,11.0,27.0,51,0.00,,,0.00,,2013-01-02 05:22:00,
2013-01-02 00:32:00,27.0,11.0,-100.00,ESE,120,11.0,27.0,51,0.00,,,0.00,,2013-01-02 05:32:00,
2013-01-02 00:42:00,27.0,11.0,-100.00,ESE,120,11.0,27.0,51,0.00,,,0.00,,2013-01-02 05:42:00,
2013-01-02 00:52:00,27.0,12.0,-100.00,SE,135,9.0,21.0,52,0.00,,,0.00,,2013-01-02 05:52:00,
2013-01-02 01:02:00,27.0,12.0,-100.00,SE,135,9.0,21.0,52,0.00,,,0.00,,2013-01-02 06:02:00,
2013-01-02 01:12:00,27.0,12.0,-100.00,SE,135,9.0,21.0,52,0.00,,,0.00,,2013-01-02 06:12:00,
2013-01-02 01:22:00,26.0,12.0,-100.00,SE,130,9.0,17.0,53,0.00,,,0.00,,2013-01-02 06:22:00,
2013-01-02 01:32:00,26.0,12.0,-100.00,SE,130,9.0,17.0,53,0.00,,,0.00,,2013-01-02 06:32:00,
2013-01-02 01:42:00,26.0,12.0,-100.00,SE,130,9.0,17.0,53,0.00,,,0.00,,2013-01-02 06:42:00,
2013-01-02 01:52:00,26.0,12.0,-100.00,ESE,105,6.0,17.0,54,0.00,,,0.00,,2013-01-02 06:52:00,
2013-01-02 02:02:00,26.0,12.0,-100.00,ESE,105,6.0,17.0,54,0.00,,,0.00,,2013-01-02 07:02:00,
2013-01-02 02:12:00,26.0,12.0,-100.00,ESE,105,6.0,17.0,54,0.00,,,0.00,,2013-01-02 07:12:00,
2013-01-02 02:22:00,26.0,12.0,-100.00,SE,140,6.0,16.0,54,0.00,,,0.00,,2013-01-02 07:22:00,
2013-01-02 02:32:00,26.0,12.0,-100.00,SE,140,6.0,16.0,54,0.00,,,0.00,,2013-01-02 07:32:00,
2013-01-02 02:42:00,26.0,12.0,-100.00,SE,140,6.0,16.0,54,0.00,,,0.00,,2013-01-02 07:42:00,
2013-01-02 02:52:00,26.0,12.0,-100.00,SE,140,7.0,16.0,55,0.00,,,0.00,,2013-01-02 07:52:00,
2013-01-02 03:02:00,26.0,12.0,-100.00,SE,140,7.0,16.0,55,0.00,,,0.00,,2013-01-02 08:02:00,
2013-01-02 03:11:00,26.0,12.0,-100.00,SE,140,7.0,16.0,55,0.00,,,0.00,,2013-01-02 08:11:00,
2013-01-02 03:22:00,26.0,12.0,-100.00,ESE,105,6.0,14.0,55,0.00,,,0.00,,2013-01-02 08:22:00,
2013-01-02 03:32:00,26.0,12.0,-100.00,ESE,105,6.0,14.0,55,0.00,,,0.00,,2013-01-02 08:32:00,
2013-01-02 03:42:00,26.0,12.0,-100.00,ESE,105,6.0,14.0,55,0.00,,,0.00,,2013-01-02 08:42:00,
2013-01-02 03:52:00,25.0,12.0,-100.00,ESE,115,7.0,22.0,56,0.00,,,0.00,,2013-01-02 08:52:00,
2013-01-02 04:02:00,25.0,12.0,-100.00,ESE,115,7.0,22.0,56,0.00,,,0.00,,2013-01-02 09:02:00,
2013-01-02 04:12:00,25.0,12.0,-100.00,ESE,115,7.0,22.0,56,0.00,,,0.00,,2013-01-02 09:12:00,
2013-01-02 04:22:00,25.0,12.0,-100.00,SE,140,6.0,18.0,57,0.00,,,0.00,,2013-01-02 09:22:00,
2013-01-02 04:32:00,25.0,12.0,-100.00,SE,140,6.0,18.0,57,0.00,,,0.00,,2013-01-02 09:32:00,
2013-01-02 04:43:00,25.0,12.0,-100.00,SE,140,6.0,18.0,57,0.00,,,0.00,,2013-01-02 09:43:00,
2013-01-02 04:52:00,25.0,13.0,-100.00,East,100,7.0,16.0,57,0.00,,,0.00,,2013-01-02 09:52:00,
2013-01-02 05:02:00,25.0,13.0,-100.00,East,100,7.0,16.0,57,0.00,,,0.00,,2013-01-02 10:02:00,
2013-01-02 05:12:00,25.0,13.0,-100.00,East,100,7.0,16.0,57,0.00,,,0.00,,2013-01-02 10:12:00,
2013-01-02 05:22:00,25.0,13.0,-100.00,ESE,120,7.0,17.0,58,0.00,,,0.00,,2013-01-02 10:22:00,
2013-01-02 05:32:00,25.0,13.0,-100.00,ESE,120,7.0,17.0,58,0.00,,,0.00,,2013-01-02 10:32:00,
2013-01-02 05:42:00,25.0,13.0,-100.00,ESE,120,7.0,17.0,58,0.00,,,0.00,,2013-01-02 10:42:00,
2013-01-02 05:52:00,25.0,13.0,-100.00,ESE,110,7.0,17.0,59,0.00,,,0.00,,2013-01-02 10:52:00,
2013-01-02 06:02:00,25.0,13.0,-100.00,ESE,110,7.0,17.0,59,0.00,,,0.00,,2013-01-02 11:02:00,
2013-01-02 06:11:00,25.0,13.0,-100.00,ESE,110,7.0,17.0,59,0.00,,,0.00,,2013-01-02 11:11:00,
2013-01-02 06:22:00,25.0,13.0,-100.00,ESE,120,7.0,16.0,60,0.00,,,0.00,,2013-01-02 11:22:00,
2013-01-02 06:32:00,25.0,13.0,-100.00,ESE,120,7.0,16.0,60,0.00,,,0.00,,2013-01-02 11:32:00,
2013-01-02 06:42:00,25.0,13.0,-100.00,ESE,120,7.0,16.0,60,0.00,,,0.00,,2013-01-02 11:42:00,
2013-01-02 06:52:00,24.0,13.0,-100.00,ESE,120,7.0,14.0,62,0.00,,,0.00,,2013-01-02 11:52:00,
2013-01-02 07:02:00,24.0,13.0,-100.00,ESE,120,7.0,14.0,62,0.00,,,0.00,,2013-01-02 12:02:00,
2013-01-02 07:12:00,24.0,13.0,-100.00,ESE,120,7.0,14.0,62,0.00,,,0.00,,2013-01-02 12:12:00,
2013-01-02 07:22:00,24.0,13.0,-100.00,SE,145,6.0,13.0,62,0.00,,,0.00,,2013-01-02 12:22:00,
2013-01-02 07:32:00,24.0,13.0,-100.00,SE,145,6.0,13.0,62,0.00,,,0.00,,2013-01-02 12:32:00,
2013-01-02 07:42:00,24.0,13.0,-100.00,SE,145,6.0,13.0,62,0.00,,,0.00,,2013-01-02 12:42:00,
2013-01-02 07:52:00,23.0,13.0,-100.00,SE,135,6.0,10.0,64,0.00,,,0.00,,2013-01-02 12:52:00,
2013-01-02 08:02:00,23.0,13.0,-100.00,SE,135,6.0,10.0,64,0.00,,,0.00,,2013-01-02 13:02:00,
2013-01-02 08:12:00,23.0,13.0,-100.00,SE,135,6.0,10.0,64,0.00,,,0.00,,2013-01-02 13:12:00,
2013-01-02 08:22:00,23.0,13.0,-100.00,SE,145,6.0,9.0,65,0.00,,,0.00,,2013-01-02 13:22:00,
2013-01-02 08:32:00,23.0,13.0,-100.00,SE,145,6.0,9.0,65,0.00,,,0.00,,2013-01-02 13:32:00,
2013-01-02 08:42:00,23.0,13.0,-100.00,SE,145,6.0,9.0,65,0.00,,,0.00,,2013-01-02 13:42:00,
2013-01-02 08:52:00,23.0,14.0,-100.00,SSE,155,5.0,9.0,67,0.00,,,0.00,,2013-01-02 13:52:00,
2013-01-02 09:02:00,23.0,14.0,-100.00,SSE,155,5.0,9.0,67,0.00,,,0.00,,2013-01-02 14:02:00,
2013-01-02 09:12:00,23.0,14.0,-100.00,SSE,155,5.0,9.0,67,0.00,,,0.00,,2013-01-02 14:12:00,
2013-01-02 09:22:00,22.0,14.0,-100.00,SE,130,6.0,9.0,68,0.00,,,0.00,,2013-01-02 14:22:00,
2013-01-02 09:32:00,22.0,14.0,-100.00,SE,130,6.0,9.0,68,0.00,,,0.00,,2013-01-02 14:32:00,
2013-01-02 09:42:00,22.0,14.0,-100.00,SE,130,6.0,9.0,68,0.00,,,0.00,,2013-01-02 14:42:00,
2013-01-02 09:53:00,22.0,14.0,-100.00,SSE,160,4.0,7.0,70,0.00,,,0.00,,2013-01-02 14:53:00,
2013-01-02 10:02:00,22.0,14.0,-100.00,SSE,160,4.0,7.0,70,0.00,,,0.00,,2013-01-02 15:02:00,
2013-01-02 10:12:00,22.0,14.0,-100.00,SSE,160,4.0,7.0,70,0.00,,,0.00,,2013-01-02 15:12:00,
2013-01-02 10:22:00,22.0,14.0,-100.00,SE,145,4.0,7.0,70,0.00,,,0.00,,2013-01-02 15:22:00,
2013-01-02 10:33:00,22.0,14.0,-100.00,SE,145,4.0,7.0,70,0.00,,,0.00,,2013-01-02 15:33:00,
2013-01-02 10:42:00,22.0,14.0,-100.00,SE,145,4.0,7.0,70,0.00,,,0.00,,2013-01-02 15:42:00,
2013-01-02 10:52:00,22.0,14.0,-100.00,SE,140,4.0,7.0,71,0.00,,,0.00,,2013-01-02 15:52:00,
2013-01-02 11:03:00,22.0,14.0,-100.00,SE,140,4.0,7.0,71,0.00,,,0.00,,2013-01-02 16:03:00,
2013-01-02 11:12:00,22.0,14.0,-100.00,SE,140,4.0,7.0,71,0.00,,,0.00,,2013-01-02 16:12:00,
2013-01-02 11:22:00,22.0,14.0,-100.00,SSE,165,3.0,7.0,72,0.00,,,0.00,,2013-01-02 16:22:00,
2013-01-02 11:33:00,22.0,14.0,-100.00,SSE,165,3.0,7.0,72,0.00,,,0.00,,2013-01-02 16:33:00,
2013-01-02 11:42:00,22.0,14.0,-100.00,SSE,165,3.0,7.0,72,0.00,,,0.00,,2013-01-02 16:42:00,
2013-01-02 11:53:00,22.0,15.0,-100.00,SSW,205,3.0,8.0,72,0.00,,,0.00,,2013-01-02 16:53:00,
2013-01-02 12:03:00,22.0,15.0,-100.00,SSW,205,3.0,8.0,72,0.00,,,0.00,,2013-01-02 17:03:00,
2013-01-02 12:12:00,22.0,15.0,-100.00,SSW,205,3.0,8.0,72,0.00,,,0.00,,2013-01-02 17:12:00,
2013-01-02 12:22:00,24.0,15.0,-100.00,SW,220,2.0,7.0,65,0.00,,,0.00,,2013-01-02 17:22:00,
2013-01-02 12:43:00,24.0,15.0,-100.00,SW,220,2.0,7.0,65,0.00,,,0.00,,2013-01-02 17:43:00,
2013-01-02 12:53:00,25.0,14.0,-100.00,WNW,290,3.0,6.0,62,0.00,,,0.00,,2013-01-02 17:53:00,
2013-01-02 13:12:00,25.0,14.0,-100.00,WNW,290,3.0,6.0,62,0.00,,,0.00,,2013-01-02 18:12:00,
2013-01-02 13:22:00,26.0,14.0,-100.00,NNW,330,3.0,7.0,60,0.00,,,0.00,,2013-01-02 18:22:00,
2013-01-02 13:42:00,26.0,14.0,-100.00,NNW,330,3.0,7.0,60,0.00,,,0.00,,2013-01-02 18:42:00,
2013-01-02 13:52:00,25.0,14.0,-100.00,West,270,2.0,2.0,60,0.00,,,0.00,,2013-01-02 18:52:00,
2013-01-02 14:02:00,25.0,14.0,-100.00,West,270,2.0,2.0,60,0.00,,,0.00,,2013-01-02 19:02:00,
2013-01-02 14:12:00,25.0,14.0,-100.00,West,270,2.0,2.0,60,0.00,,,0.00,,2013-01-02 19:12:00,
2013-01-02 14:22:00,25.0,13.0,-100.00,SE,145,2.0,3.0,61,0.00,,,0.00,,2013-01-02 19:22:00,
2013-01-02 14:32:00,25.0,13.0,-100.00,SE,145,2.0,3.0,61,0.00,,,0.00,,2013-01-02 19:32:00,
2013-01-02 14:42:00,25.0,13.0,-100.00,SE,145,2.0,3.0,61,0.00,,,0.00,,2013-01-02 19:42:00,
2013-01-02 14:52:00,26.0,14.0,-100.00,SE,140,6.0,9.0,60,0.00,,,0.00,,2013-01-02 19:52:00,
2013-01-02 15:12:00,26.0,14.0,-100.00,SE,140,6.0,9.0,60,0.00,,,0.00,,2013-01-02 20:12:00,
2013-01-02 15:22:00,24.0,13.0,-100.00,SE,130,6.0,10.0,64,0.00,,,0.00,,2013-01-02 20:22:00,
2013-01-02 15:33:00,24.0,13.0,-100.00,SE,130,6.0,10.0,64,0.00,,,0.00,,2013-01-02 20:33:00,
2013-01-02 15:42:00,24.0,13.0,-100.00,SE,130,6.0,10.0,64,0.00,,,0.00,,2013-01-02 20:42:00,
2013-01-02 15:53:00,23.0,13.0,-100.00,SE,145,6.0,11.0,66,0.00,,,0.00,,2013-01-02 20:53:00,
2013-01-02 16:03:00,23.0,13.0,-100.00,SE,145,6.0,11.0,66,0.00,,,0.00,,2013-01-02 21:03:00,
2013-01-02 16:12:00,23.0,13.0,-100.00,SE,145,6.0,11.0,66,0.00,,,0.00,,2013-01-02 21:12:00,
2013-01-02 16:22:00,23.0,14.0,-100.00,SE,145,6.0,12.0,67,0.00,,,0.00,,2013-01-02 21:22:00,
2013-01-02 16:32:00,23.0,14.0,-100.00,SE,145,6.0,12.0,67,0.00,,,0.00,,2013-01-02 21:32:00,
2013-01-02 16:42:00,23.0,14.0,-100.00,SE,145,6.0,12.0,67,0.00,,,0.00,,2013-01-02 21:42:00,
2013-01-02 16:52:00,23.0,14.0,-100.00,SSE,150,6.0,11.0,65,0.00,,,0.00,,2013-01-02 21:52:00,
2013-01-02 17:02:00,23.0,14.0,-100.00,SSE,150,6.0,11.0,65,0.00,,,0.00,,2013-01-02 22:02:00,
2013-01-02 17:12:00,23.0,14.0,-100.00,SSE,150,6.0,11.0,65,0.00,,,0.00,,2013-01-02 22:12:00,
2013-01-02 17:22:00,25.0,14.0,-100.00,SSE,160,5.0,12.0,64,0.00,,,0.00,,2013-01-02 22:22:00,
2013-01-02 17:32:00,25.0,14.0,-100.00,SSE,160,5.0,12.0,64,0.00,,,0.00,,2013-01-02 22:32:00,
2013-01-02 17:42:00,25.0,14.0,-100.00,SSE,160,5.0,12.0,64,0.00,,,0.00,,2013-01-02 22:42:00,
2013-01-02 17:52:00,25.0,15.0,-100.00,SSE,150,6.0,12.0,64,0.00,,,0.00,,2013-01-02 22:52:00,
2013-01-02 18:12:00,25.0,15.0,-100.00,SSE,150,6.0,12.0,64,0.00,,,0.00,,2013-01-02 23:12:00,
2013-01-02 18:22:00,25.0,14.0,-100.00,SSE,155,7.0,12.0,64,0.00,,,0.00,,2013-01-02 23:22:00,
2013-01-02 18:33:00,25.0,14.0,-100.00,SSE,155,7.0,12.0,64,0.00,,,0.00,,2013-01-02 23:33:00,
2013-01-02 18:42:00,25.0,14.0,-100.00,SSE,155,7.0,12.0,64,0.00,,,0.00,,2013-01-02 23:42:00,
2013-01-02 18:52:00,25.0,15.0,-100.00,SE,125,5.0,11.0,64,0.00,,,0.00,,2013-01-02 23:52:00,
2013-01-02 19:02:00,25.0,15.0,-100.00,SE,125,5.0,11.0,64,0.00,,,0.00,,2013-01-03 00:02:00,
2013-01-02 19:12:00,25.0,15.0,-100.00,SE,125,5.0,11.0,64,0.00,,,0.00,,2013-01-03 00:12:00,
2013-01-02 19:22:00,26.0,15.0,-100.00,ESE,115,4.0,11.0,63,0.00,,,0.00,,2013-01-03 00:22:00,
2013-01-02 19:37:00,26.0,15.0,-100.00,ESE,115,4.0,11.0,63,0.00,,,0.00,,2013-01-03 00:37:00,
2013-01-02 19:52:00,26.0,15.0,-100.00,SE,130,4.0,11.0,62,0.00,,,0.00,,2013-01-03 00:52:00,
2013-01-02 20:22:00,26.0,15.0,-100.00,ESE,120,4.0,11.0,61,0.00,,,0.00,,2013-01-03 01:22:00,
2013-01-02 20:32:00,26.0,15.0,-100.00,ESE,120,4.0,11.0,61,0.00,,,0.00,,2013-01-03 01:32:00,
2013-01-02 20:42:00,26.0,15.0,-100.00,ESE,120,4.0,11.0,61,0.00,,,0.00,,2013-01-03 01:42:00,
2013-01-02 20:50:00,26.0,15.0,-100.00,ESE,105,2.0,11.0,60,0.00,,,0.00,,2013-01-03 01:50:00,
2013-01-02 20:52:00,26.0,15.0,-100.00,SE,125,4.0,10.0,61,0.00,,,0.00,,2013-01-03 01:52:00,
2013-01-02 21:12:00,26.0,15.0,-100.00,SE,125,4.0,10.0,61,0.00,,,0.00,,2013-01-03 02:12:00,
2013-01-02 21:22:00,26.0,15.0,-100.00,ESE,105,2.0,11.0,60,0.00,,,0.00,,2013-01-03 02:22:00,
2013-01-02 21:33:00,26.0,15.0,-100.00,ESE,105,2.0,11.0,60,0.00,,,0.00,,2013-01-03 02:33:00,
2013-01-02 21:42:00,26.0,15.0,-100.00,ESE,105,2.0,11.0,60,0.00,,,0.00,,2013-01-03 02:42:00,
2013-01-02 22:02:00,27.0,15.0,-100.00,SE,130,3.0,11.0,60,0.00,,,0.00,,2013-01-03 03:02:00,
2013-01-02 22:22:00,27.0,15.0,-100.00,East,90,4.0,12.0,59,0.00,,,0.00,,2013-01-03 03:22:00,
2013-01-02 22:52:00,27.0,15.0,-100.00,ENE,75,4.0,11.0,58,0.00,,,0.00,,2013-01-03 03:52:00,
2013-01-02 23:22:00,27.0,14.0,-100.00,ESE,120,4.0,11.0,57,0.00,,,0.00,,2013-01-03 04:22:00,
2013-01-02 23:52:00,27.0,14.0,-100.00,SE,145,4.0,11.0,57,0.00,,,0.00,,2013-01-03 04:52:00,